Time;durP1;ratioP1;P1;durP2;ratioP2;P2;SDS_P1;SDS_P2;PMS_P1;PMS_P2;Temp;Humidity;BMP_temperature;BMP_pressure;BME280_temperature;BME280_humidity;BME280_pressure;Samples;Min_cycle;Max_cycle;Signal;HPM_P1;HPM_P2
2021/09/11 00:01:57;;;;;;;13.73;11.90;;;18.00;99.90;;;;;;4968829;28;20175;-79
2021/09/11 00:04:22;;;;;;;14.27;11.77;;;18.00;99.90;;;;;;4984573;28;20183;-79
2021/09/11 00:06:48;;;;;;;14.07;10.47;;;18.00;99.90;;;;;;4984064;28;20212;-79
2021/09/11 00:09:13;;;;;;;16.80;12.03;;;18.00;99.90;;;;;;4984164;28;20201;-79
2021/09/11 00:11:39;;;;;;;12.87;11.03;;;18.10;99.90;;;;;;4983878;28;20176;-79
2021/09/11 00:14:05;;;;;;;13.40;10.90;;;18.10;99.90;;;;;;4984069;28;20179;-79
2021/09/11 00:16:30;;;;;;;13.37;10.53;;;18.10;99.90;;;;;;4968258;28;20203;-79
2021/09/11 00:18:56;;;;;;;13.53;10.97;;;18.10;99.90;;;;;;4984170;28;20576;-79
2021/09/11 00:21:21;;;;;;;12.80;10.70;;;18.10;99.90;;;;;;4984432;28;20510;-79
2021/09/11 00:23:47;;;;;;;12.80;10.13;;;18.00;99.90;;;;;;4983265;28;20210;-79
2021/09/11 00:26:12;;;;;;;12.17;10.13;;;18.00;99.90;;;;;;4967312;28;20240;-80
2021/09/11 00:28:38;;;;;;;13.67;10.57;;;18.00;99.90;;;;;;4983465;28;20225;-79
2021/09/11 00:31:04;;;;;;;14.40;10.87;;;18.00;99.90;;;;;;4982705;28;20199;-79
2021/09/11 00:33:30;;;;;;;13.17;10.20;;;18.00;99.90;;;;;;4983292;28;20163;-79
2021/09/11 00:35:55;;;;;;;14.07;10.80;;;18.00;99.90;;;;;;4967377;28;20203;-79
2021/09/11 00:38:21;;;;;;;12.70;9.97;;;18.00;99.90;;;;;;4983011;28;20190;-79
2021/09/11 00:40:46;;;;;;;12.97;9.97;;;18.10;99.90;;;;;;4999297;28;20198;-79
2021/09/11 00:43:16;;;;;;;14.03;9.70;;;18.00;99.90;;;;;;4983996;28;20180;-79
2021/09/11 00:45:42;;;;;;;11.67;9.47;;;17.90;99.90;;;;;;4982753;28;20199;-79
2021/09/11 00:48:07;;;;;;;14.30;9.43;;;17.90;99.90;;;;;;4999700;28;20191;-79
2021/09/11 00:50:33;;;;;;;12.40;9.47;;;17.90;99.90;;;;;;4999688;28;20175;-80
2021/09/11 00:52:58;;;;;;;12.47;9.57;;;17.90;99.90;;;;;;4999808;28;20267;-80
2021/09/11 00:55:24;;;;;;;10.53;9.03;;;17.90;99.90;;;;;;4983335;28;20184;-80
2021/09/11 00:57:49;;;;;;;11.73;9.20;;;17.90;99.90;;;;;;4983618;28;20207;-79
2021/09/11 01:00:15;;;;;;;11.20;8.90;;;17.80;99.90;;;;;;4983892;28;20179;-79
2021/09/11 01:02:41;;;;;;;10.97;9.07;;;17.80;99.90;;;;;;4984196;28;20248;-79
2021/09/11 01:05:07;;;;;;;13.70;9.37;;;17.80;99.90;;;;;;4999039;28;20227;-79
2021/09/11 01:07:34;;;;;;;11.13;9.00;;;17.80;99.90;;;;;;4982550;28;20278;-79
2021/09/11 01:10:00;;;;;;;13.07;9.20;;;17.80;99.90;;;;;;4982348;28;20659;-79
2021/09/11 01:12:27;;;;;;;14.27;9.60;;;17.90;99.90;;;;;;4998837;28;20198;-79
2021/09/11 01:14:52;;;;;;;10.60;9.20;;;17.80;99.90;;;;;;4999369;28;20322;-79
2021/09/11 01:17:18;;;;;;;9.87;8.57;;;17.80;99.90;;;;;;4982404;28;20675;-79
2021/09/11 01:19:43;;;;;;;10.13;7.93;;;17.90;99.90;;;;;;4982530;28;20252;-79
2021/09/11 01:22:13;;;;;;;10.87;7.67;;;17.90;99.90;;;;;;4986184;28;20198;-79
2021/09/11 01:24:56;;;;;;;11.23;8.97;;;17.80;99.90;;;;;;4983086;28;20272;-79
2021/09/11 01:27:22;;;;;;;12.07;9.43;;;17.90;99.90;;;;;;4983201;28;20818;-79
2021/09/11 01:29:52;;;;;;;10.97;8.37;;;18.00;99.90;;;;;;4983149;28;20225;-79
2021/09/11 01:32:18;;;;;;;10.80;8.67;;;17.90;99.90;;;;;;4983386;28;20172;-79
2021/09/11 01:34:43;;;;;;;11.47;9.03;;;17.90;99.90;;;;;;4983082;28;20190;-80
2021/09/11 01:37:11;;;;;;;10.20;8.53;;;17.90;99.90;;;;;;4982933;28;20208;-79
2021/09/11 01:39:36;;;;;;;10.63;8.03;;;17.90;99.90;;;;;;4982697;28;20183;-79
2021/09/11 01:42:02;;;;;;;11.10;8.93;;;18.00;99.90;;;;;;4981926;28;20535;-79
2021/09/11 01:44:27;;;;;;;12.20;8.93;;;17.90;99.90;;;;;;4982359;28;20206;-79
2021/09/11 01:46:53;;;;;;;10.27;8.70;;;17.90;99.90;;;;;;4982490;28;20575;-79
2021/09/11 01:49:18;;;;;;;9.27;8.30;;;17.90;99.90;;;;;;4998481;28;20179;-79
2021/09/11 01:51:47;;;;;;;13.80;8.47;;;17.90;99.90;;;;;;4982499;28;20183;-79
2021/09/11 01:54:13;;;;;;;10.30;8.67;;;17.90;99.90;;;;;;4982701;28;20182;-80
2021/09/11 01:56:38;;;;;;;10.43;8.27;;;18.00;99.90;;;;;;4982234;28;20204;-80
2021/09/11 01:59:04;;;;;;;9.97;8.33;;;18.00;99.90;;;;;;4998808;28;20183;-80
2021/09/11 02:01:29;;;;;;;11.53;8.07;;;18.00;99.90;;;;;;4982374;28;20184;-79
2021/09/11 02:03:55;;;;;;;10.77;8.43;;;18.00;99.90;;;;;;4982632;28;20172;-79
2021/09/11 02:06:21;;;;;;;12.60;8.17;;;17.90;99.90;;;;;;4997814;28;20238;-79
2021/09/11 02:08:47;;;;;;;13.90;8.67;;;18.00;99.90;;;;;;4982229;28;20187;-79
2021/09/11 02:11:13;;;;;;;12.03;8.07;;;18.00;99.90;;;;;;4982354;28;20190;-79
2021/09/11 02:13:38;;;;;;;13.23;7.93;;;18.00;99.90;;;;;;4982486;28;20176;-79
2021/09/11 02:16:05;;;;;;;9.87;8.07;;;18.10;99.90;;;;;;4981961;28;20571;-79
2021/09/11 02:18:31;;;;;;;9.60;7.77;;;18.00;99.90;;;;;;4981506;28;20468;-79
2021/09/11 02:20:56;;;;;;;12.40;8.03;;;18.10;99.90;;;;;;4981699;28;20294;-79
2021/09/11 02:23:22;;;;;;;10.03;8.13;;;18.10;99.90;;;;;;4998382;28;20191;-79
2021/09/11 02:25:50;;;;;;;12.63;8.57;;;18.10;99.90;;;;;;4998144;28;20215;-79
2021/09/11 02:28:15;;;;;;;8.23;7.33;;;18.10;99.90;;;;;;4982479;28;20176;-79
2021/09/11 02:30:43;;;;;;;9.70;7.93;;;18.10;99.90;;;;;;5005148;28;20222;-79
2021/09/11 02:33:09;;;;;;;10.20;7.40;;;18.10;99.90;;;;;;4985243;28;20182;-79
2021/09/11 02:35:34;;;;;;;9.03;6.70;;;18.10;99.90;;;;;;5002145;28;20183;-79
2021/09/11 02:38:00;;;;;;;9.20;6.90;;;18.10;99.90;;;;;;4987264;28;20554;-79
2021/09/11 02:40:25;;;;;;;8.70;7.10;;;18.20;99.90;;;;;;5002546;28;20183;-79
2021/09/11 02:42:51;;;;;;;9.50;7.03;;;18.20;99.90;;;;;;4987036;28;20277;-79
2021/09/11 02:45:17;;;;;;;10.20;7.20;;;18.30;99.90;;;;;;5002116;28;20230;-79
2021/09/11 02:47:42;;;;;;;10.00;8.00;;;18.20;99.90;;;;;;5002530;28;20202;-79
2021/09/11 02:50:08;;;;;;;9.47;7.00;;;18.30;99.90;;;;;;5002153;28;20238;-78
2021/09/11 02:52:34;;;;;;;10.50;7.27;;;18.30;99.90;;;;;;5018769;28;20175;-78
2021/09/11 02:55:00;;;;;;;9.10;7.13;;;18.30;99.90;;;;;;5019572;28;20530;-79
2021/09/11 02:57:25;;;;;;;9.80;7.03;;;18.40;99.90;;;;;;5005591;28;20579;-79
2021/09/11 03:00:46;;;;;;;8.33;7.20;;;18.40;99.90;;;;;;5006720;28;20175;-79
2021/09/11 03:08:07;;;;;;;9.20;7.73;;;18.50;99.90;;;;;;5045736;28;20222;-79
2021/09/11 03:25:31;;;;;;;14.27;11.23;;;18.50;99.90;;;;;;4985394;28;20173;-79
2021/09/11 03:28:59;;;;;;;14.87;10.83;;;18.50;99.90;;;;;;4983535;28;20193;-79
2021/09/11 03:42:54;;;;;;;15.73;11.73;;;18.50;99.90;;;;;;4807240;29;20199;-79
2021/09/11 04:10:06;;;;;;;12.00;10.17;;;18.10;99.90;;;;;;4807546;29;20206;-79
2021/09/11 04:13:41;;;;;;;13.17;10.83;;;18.00;99.90;;;;;;4849451;29;20202;-78
2021/09/11 04:20:41;;;;;;;13.57;11.03;;;18.00;99.90;;;;;;4941732;29;20195;-79
2021/09/11 04:24:04;;;;;;;12.60;11.00;;;17.90;99.90;;;;;;5042749;28;20182;-79
2021/09/11 04:48:05;;;;;;;16.30;12.53;;;18.00;99.90;;;;;;4851402;29;20232;-79
2021/09/11 04:51:21;;;;;;;16.30;12.77;;;17.90;99.90;;;;;;4885536;29;20579;-79
2021/09/11 04:55:10;;;;;;;15.90;13.50;;;18.00;99.90;;;;;;4944322;29;20217;-79
2021/09/11 04:58:34;;;;;;;17.43;13.53;;;17.90;99.90;;;;;;4814198;29;20199;-79
2021/09/11 05:05:37;;;;;;;17.67;12.87;;;17.80;99.90;;;;;;4779247;30;20241;-79
2021/09/11 05:09:28;;;;;;;16.73;12.20;;;17.80;99.90;;;;;;4794081;29;20266;-79
2021/09/11 05:12:31;;;;;;;16.80;13.53;;;17.90;99.90;;;;;;4811407;29;20365;-79
2021/09/11 05:15:22;;;;;;;15.73;12.87;;;17.80;99.90;;;;;;4823348;29;20207;-79
2021/09/11 05:32:14;;;;;;;16.50;12.67;;;17.80;99.90;;;;;;4869608;29;20559;-79
2021/09/11 05:35:37;;;;;;;18.43;13.03;;;17.80;99.90;;;;;;4883516;29;20203;-79
2021/09/11 05:38:48;;;;;;;17.07;13.07;;;17.90;99.90;;;;;;4928375;28;20196;-79
2021/09/11 05:42:11;;;;;;;16.67;11.40;;;17.90;99.90;;;;;;4929454;29;20194;-79
2021/09/11 05:45:46;;;;;;;16.43;11.77;;;17.90;99.90;;;;;;4905626;29;20243;-79
2021/09/11 05:48:53;;;;;;;14.23;10.90;;;17.90;99.90;;;;;;4851468;29;20207;-79
2021/09/11 05:56:00;;;;;;;15.77;10.83;;;17.90;99.90;;;;;;4814611;29;20212;-79
2021/09/11 06:09:40;;;;;;;18.43;13.40;;;18.10;99.90;;;;;;4808606;29;20254;-79
2021/09/11 06:16:21;;;;;;;17.00;13.23;;;18.20;99.90;;;;;;4788382;29;20259;-80
2021/09/11 06:19:33;;;;;;;20.20;14.60;;;18.20;99.90;;;;;;4836690;29;20214;-79
2021/09/11 06:22:46;;;;;;;21.20;14.97;;;18.20;99.90;;;;;;4804638;29;20203;-79
2021/09/11 06:29:02;;;;;;;18.97;13.90;;;18.30;99.90;;;;;;4908359;29;20227;-78
2021/09/11 06:32:23;;;;;;;20.70;14.80;;;18.40;99.90;;;;;;4881108;29;20195;-78
2021/09/11 06:35:52;;;;;;;19.37;14.23;;;18.40;99.90;;;;;;4919301;29;20271;-78
2021/09/11 06:38:45;;;;;;;19.53;12.80;;;18.50;99.90;;;;;;4938628;29;20322;-78
2021/09/11 06:55:44;;;;;;;18.00;13.33;;;18.60;99.90;;;;;;4915950;29;20209;-78
2021/09/11 06:58:50;;;;;;;19.97;14.27;;;18.90;99.90;;;;;;4945051;29;20193;-78
2021/09/11 07:01:40;;;;;;;18.77;14.77;;;19.00;99.90;;;;;;4903854;29;20202;-78
2021/09/11 07:04:06;;;;;;;19.53;14.00;;;19.40;99.90;;;;;;4891147;29;20203;-81
2021/09/11 07:06:31;;;;;;;17.03;13.27;;;19.70;99.90;;;;;;4903942;29;20225;-80
2021/09/11 07:08:57;;;;;;;17.67;13.10;;;19.90;99.90;;;;;;4944411;28;20184;-78
2021/09/11 07:11:22;;;;;;;15.30;12.33;;;19.80;99.90;;;;;;4966625;28;20647;-78
2021/09/11 07:13:48;;;;;;;15.57;12.50;;;19.90;99.90;;;;;;4984344;28;20179;-76
2021/09/11 07:16:14;;;;;;;18.70;13.33;;;19.90;99.90;;;;;;4991746;28;20235;-75
2021/09/11 07:18:39;;;;;;;15.23;11.80;;;20.00;99.90;;;;;;4991586;28;20187;-76
2021/09/11 07:21:05;;;;;;;13.03;10.60;;;20.00;99.90;;;;;;4991944;28;20215;-76
2021/09/11 07:23:30;;;;;;;14.10;10.43;;;20.20;99.90;;;;;;5004677;28;20182;-76
2021/09/11 07:25:56;;;;;;;13.00;9.73;;;20.40;99.90;;;;;;5011447;28;20217;-77
2021/09/11 07:28:21;;;;;;;9.20;7.80;;;20.60;99.90;;;;;;4986715;28;20836;-75
2021/09/11 07:30:47;;;;;;;7.43;6.40;;;20.70;99.90;;;;;;5013818;28;20183;-74
2021/09/11 07:33:13;;;;;;;6.53;5.80;;;20.50;99.90;;;;;;4999477;28;20182;-74
2021/09/11 07:35:38;;;;;;;6.10;4.83;;;20.40;99.90;;;;;;4990371;28;20291;-74
2021/09/11 07:38:04;;;;;;;7.50;4.80;;;20.40;99.90;;;;;;4985498;28;20187;-78
2021/09/11 07:40:29;;;;;;;6.10;4.60;;;20.50;99.90;;;;;;4995260;28;20187;-80
2021/09/11 07:42:55;;;;;;;5.13;4.57;;;20.70;99.90;;;;;;4976091;28;20185;-78
2021/09/11 07:45:20;;;;;;;4.90;4.20;;;20.80;99.90;;;;;;4990377;28;20737;-77
2021/09/11 07:47:46;;;;;;;4.60;3.73;;;21.00;99.90;;;;;;4995882;28;20200;-78
2021/09/11 07:50:11;;;;;;;5.17;3.33;;;21.20;99.90;;;;;;5002947;28;20182;-79
2021/09/11 07:52:37;;;;;;;4.57;3.53;;;21.10;99.90;;;;;;5003433;28;20630;-79
2021/09/11 07:55:04;;;;;;;5.10;3.50;;;20.80;99.90;;;;;;4987362;28;20624;-79
2021/09/11 07:57:29;;;;;;;6.27;3.53;;;20.70;99.90;;;;;;5004210;28;20201;-79
2021/09/11 07:59:55;;;;;;;7.90;4.00;;;20.60;99.90;;;;;;5003648;28;20265;-83
2021/09/11 08:02:22;;;;;;;5.93;3.83;;;20.80;99.90;;;;;;4987799;28;20221;-81
2021/09/11 08:04:47;;;;;;;5.97;3.90;;;20.90;99.90;;;;;;5002243;28;20214;-77
2021/09/11 08:07:13;;;;;;;7.10;4.60;;;21.00;99.90;;;;;;5002364;28;20194;-78
2021/09/11 08:09:38;;;;;;;4.97;4.10;;;21.30;99.90;;;;;;4986647;28;20186;-77
2021/09/11 08:12:07;;;;;;;6.30;4.90;;;21.40;99.90;;;;;;4987363;28;20233;-76
2021/09/11 08:14:33;;;;;;;5.67;4.40;;;21.40;99.90;;;;;;5002897;28;20661;-78
2021/09/11 08:16:59;;;;;;;5.67;4.83;;;21.40;99.90;;;;;;5002780;28;20199;-78
2021/09/11 08:19:24;;;;;;;5.83;5.23;;;21.40;99.90;;;;;;4991595;28;20261;-79
2021/09/11 08:21:50;;;;;;;8.47;5.87;;;21.60;99.90;;;;;;4975240;28;20636;-80
2021/09/11 08:24:15;;;;;;;8.57;5.80;;;21.70;99.90;;;;;;4981041;28;20210;-77
2021/09/11 08:26:41;;;;;;;9.03;6.37;;;21.40;99.90;;;;;;4987313;28;20258;-81
2021/09/11 08:29:06;;;;;;;7.60;6.80;;;21.30;99.90;;;;;;4988121;28;20175;-79
2021/09/11 08:31:32;;;;;;;8.20;6.33;;;21.40;99.90;;;;;;4982808;28;20234;-81
2021/09/11 08:33:57;;;;;;;8.97;6.20;;;21.50;99.90;;;;;;4992815;28;20300;-78
2021/09/11 08:36:23;;;;;;;6.60;6.00;;;21.70;99.90;;;;;;5009840;28;20328;-79
2021/09/11 08:38:49;;;;;;;8.87;6.23;;;21.80;99.90;;;;;;5006984;28;20174;-79
2021/09/11 08:41:14;;;;;;;7.53;6.07;;;21.80;99.90;;;;;;4990786;28;20182;-79
2021/09/11 08:43:40;;;;;;;6.20;5.40;;;21.80;99.90;;;;;;4992076;28;20179;-79
2021/09/11 08:46:06;;;;;;;7.43;5.43;;;22.00;99.90;;;;;;5008982;28;20211;-78
2021/09/11 08:48:32;;;;;;;8.33;5.93;;;22.10;99.90;;;;;;4996546;28;20226;-77
2021/09/11 08:50:58;;;;;;;6.57;5.83;;;22.10;99.90;;;;;;5037401;28;20186;-78
2021/09/11 08:53:23;;;;;;;7.07;5.87;;;22.30;99.90;;;;;;4993644;28;20195;-80
2021/09/11 08:55:49;;;;;;;6.60;5.70;;;22.30;99.90;;;;;;4984243;28;20734;-79
2021/09/11 08:58:18;;;;;;;7.30;6.13;;;22.10;99.90;;;;;;4983911;28;20191;-80
2021/09/11 09:00:48;;;;;;;8.60;6.17;;;22.10;99.90;;;;;;4999585;28;20203;-80
2021/09/11 09:03:36;;;;;;;7.67;6.23;;;22.30;99.90;;;;;;4967677;28;20266;-79
2021/09/11 09:06:15;;;;;;;8.10;5.80;;;22.60;99.90;;;;;;4988467;28;20207;-82
2021/09/11 09:08:41;;;;;;;7.20;5.60;;;22.60;99.90;;;;;;5014562;28;20193;-80
2021/09/11 09:11:17;;;;;;;6.23;5.63;;;22.50;99.90;;;;;;4980299;28;20182;-78
2021/09/11 09:13:50;;;;;;;7.03;5.37;;;22.10;99.90;;;;;;4982472;28;20195;-79
2021/09/11 09:16:16;;;;;;;7.50;5.90;;;21.80;99.90;;;;;;4981551;28;20203;-78
2021/09/11 09:18:41;;;;;;;6.77;6.07;;;21.50;99.90;;;;;;4977355;28;20190;-79
2021/09/11 09:21:23;;;;;;;7.73;5.77;;;21.30;99.90;;;;;;4978068;28;20183;-78
2021/09/11 09:23:55;;;;;;;8.07;5.50;;;21.20;99.90;;;;;;4997904;28;20340;-83
2021/09/11 09:33:45;;;;;;;5.13;3.47;;;21.00;99.90;;;;;;4951573;28;20205;-77
2021/09/11 09:46:41;;;;;;;5.00;2.93;;;21.20;99.90;;;;;;4953549;28;20236;-76
2021/09/11 09:49:11;;;;;;;5.67;3.33;;;21.30;99.90;;;;;;4941005;29;20201;-76
2021/09/11 09:52:02;;;;;;;3.87;2.67;;;21.50;99.90;;;;;;4943679;29;20185;-76
2021/09/11 09:54:40;;;;;;;4.23;2.40;;;21.60;99.90;;;;;;4953504;29;20189;-76
2021/09/11 09:57:06;;;;;;;4.23;2.70;;;21.90;99.90;;;;;;4971720;28;20290;-74
2021/09/11 09:59:31;;;;;;;3.70;2.90;;;22.20;99.90;;;;;;4993103;28;20812;-73
2021/09/11 10:01:57;;;;;;;3.00;2.70;;;22.30;99.90;;;;;;4981474;28;20839;-72
2021/09/11 10:04:22;;;;;;;5.30;3.87;;;22.40;99.90;;;;;;5015470;28;20252;-74
2021/09/11 10:06:51;;;;;;;4.67;3.50;;;22.40;99.90;;;;;;5019621;28;20313;-74
2021/09/11 10:09:21;;;;;;;3.97;3.33;;;22.40;99.90;;;;;;5003674;28;20194;-74
2021/09/11 10:11:50;;;;;;;4.37;3.00;;;22.60;99.90;;;;;;5002932;28;20179;-74
2021/09/11 10:14:16;;;;;;;5.90;3.60;;;22.70;99.90;;;;;;5003173;28;20179;-76
2021/09/11 10:16:44;;;;;;;4.13;3.73;;;22.80;99.90;;;;;;5035326;28;20724;-77
2021/09/11 10:19:22;;;;;;;4.83;3.60;;;23.00;99.90;;;;;;5018754;28;20179;-75
2021/09/11 10:21:52;;;;;;;5.53;3.53;;;22.90;99.90;;;;;;5003602;28;20590;-75
2021/09/11 10:24:18;;;;;;;5.30;3.60;;;22.90;99.90;;;;;;4996597;28;20282;-75
2021/09/11 10:26:46;;;;;;;4.97;3.43;;;22.70;99.90;;;;;;5017849;28;20289;-75
2021/09/11 10:29:30;;;;;;;6.33;2.83;;;22.70;99.90;;;;;;5037999;28;20194;-75
2021/09/11 10:31:57;;;;;;;3.53;2.37;;;22.70;99.90;;;;;;5017321;28;20175;-76
2021/09/11 10:34:43;;;;;;;4.00;2.57;;;22.60;99.90;;;;;;4999247;28;20211;-75
2021/09/11 10:37:09;;;;;;;4.77;3.00;;;22.80;99.90;;;;;;4999223;28;20243;-75
2021/09/11 10:39:34;;;;;;;5.00;2.87;;;22.80;99.90;;;;;;5001646;28;20314;-75
2021/09/11 10:42:07;;;;;;;2.93;2.50;;;22.80;99.90;;;;;;4983741;28;20191;-81
2021/09/11 10:44:32;;;;;;;3.83;2.70;;;22.90;99.90;;;;;;4999662;28;20183;-75
2021/09/11 10:46:58;;;;;;;4.67;3.03;;;22.80;99.90;;;;;;5006618;28;20214;-75
2021/09/11 10:49:35;;;;;;;3.37;2.80;;;22.80;99.90;;;;;;4993764;28;20178;-75
2021/09/11 10:52:11;;;;;;;4.53;2.77;;;22.80;99.90;;;;;;5014249;28;20170;-75
2021/09/11 10:54:40;;;;;;;5.63;2.83;;;22.70;99.90;;;;;;4995312;28;20199;-75
2021/09/11 10:57:09;;;;;;;2.70;2.50;;;22.70;99.90;;;;;;4973873;28;20218;-75
2021/09/11 10:59:39;;;;;;;3.60;2.37;;;22.50;99.90;;;;;;5017652;28;20638;-76
2021/09/11 11:02:07;;;;;;;3.33;2.60;;;22.50;99.90;;;;;;4989582;28;20675;-79
2021/09/11 11:04:37;;;;;;;3.53;2.27;;;22.40;99.90;;;;;;4998473;28;20203;-77
2021/09/11 11:07:08;;;;;;;2.70;2.30;;;22.50;99.90;;;;;;4999629;28;20193;-78
2021/09/11 11:09:41;;;;;;;2.47;2.10;;;22.50;99.90;;;;;;5002897;28;20502;-78
2021/09/11 11:12:07;;;;;;;2.23;2.00;;;22.60;99.90;;;;;;5001575;28;20937;-79
2021/09/11 11:14:34;;;;;;;2.93;2.10;;;22.50;99.90;;;;;;5018226;28;20260;-78
2021/09/11 11:17:04;;;;;;;2.97;1.90;;;22.40;99.90;;;;;;4993087;28;20195;-79
2021/09/11 11:19:32;;;;;;;2.67;1.77;;;22.30;99.90;;;;;;4984695;28;20675;-78
2021/09/11 11:22:08;;;;;;;3.23;2.27;;;22.30;99.90;;;;;;5000238;28;20235;-78
2021/09/11 11:24:35;;;;;;;2.53;1.80;;;22.20;99.90;;;;;;5000502;28;20226;-78
2021/09/11 11:27:24;;;;;;;2.83;1.70;;;22.10;99.90;;;;;;4994992;28;20620;-79
2021/09/11 11:29:51;;;;;;;2.10;1.80;;;22.00;99.90;;;;;;5020043;28;20167;-78
2021/09/11 11:32:20;;;;;;;3.20;2.00;;;21.90;99.90;;;;;;5019513;28;20171;-79
2021/09/11 11:34:45;;;;;;;2.50;1.90;;;21.90;99.90;;;;;;5003999;28;20705;-79
2021/09/11 11:37:11;;;;;;;2.87;1.93;;;21.90;99.90;;;;;;4985200;28;20225;-79
2021/09/11 11:39:38;;;;;;;2.30;1.80;;;21.90;99.90;;;;;;5004212;28;20226;-84
2021/09/11 11:42:10;;;;;;;3.30;2.10;;;22.00;99.90;;;;;;4999111;28;20644;-79
2021/09/11 11:44:40;;;;;;;3.00;2.10;;;22.10;99.90;;;;;;4981457;28;20175;-82
2021/09/11 11:47:30;;;;;;;3.07;2.00;;;22.20;99.90;;;;;;5002134;28;20246;-83
2021/09/11 11:49:55;;;;;;;2.57;2.07;;;22.20;99.90;;;;;;5006722;28;20166;-81
2021/09/11 11:52:22;;;;;;;2.50;2.20;;;22.20;99.90;;;;;;5004168;28;20205;-80
2021/09/11 11:54:49;;;;;;;2.63;2.10;;;22.20;99.90;;;;;;5002843;28;20215;-81
2021/09/11 11:57:15;;;;;;;2.83;2.20;;;22.20;99.90;;;;;;4991840;28;20219;-77
2021/09/11 11:59:41;;;;;;;3.80;2.40;;;22.10;99.90;;;;;;4983979;28;20241;-78
2021/09/11 12:02:21;;;;;;;5.13;2.57;;;22.20;99.90;;;;;;4985543;28;20268;-78
2021/09/11 12:04:47;;;;;;;2.80;2.60;;;22.10;99.90;;;;;;5000051;28;20188;-78
2021/09/11 12:07:31;;;;;;;2.93;2.63;;;22.10;99.90;;;;;;5003062;28;20682;-77
2021/09/11 12:10:00;;;;;;;4.03;2.77;;;22.10;99.90;;;;;;5002051;28;20198;-76
2021/09/11 12:12:28;;;;;;;3.07;2.57;;;22.10;99.90;;;;;;4992662;28;20188;-77
2021/09/11 12:14:55;;;;;;;3.87;2.80;;;22.10;99.90;;;;;;4994482;28;20229;-78
2021/09/11 12:17:20;;;;;;;5.97;2.80;;;22.10;99.90;;;;;;4986458;28;20394;-76
2021/09/11 12:19:46;;;;;;;4.73;2.90;;;22.20;99.90;;;;;;5001693;28;20706;-82
2021/09/11 12:22:16;;;;;;;4.10;3.00;;;22.40;99.90;;;;;;5002482;28;20174;-79
2021/09/11 12:24:41;;;;;;;3.93;3.10;;;22.60;99.90;;;;;;5001417;28;20203;-79
2021/09/11 12:27:15;;;;;;;3.13;2.60;;;22.70;99.90;;;;;;5002010;28;20278;-78
2021/09/11 12:29:41;;;;;;;4.63;2.23;;;22.70;99.90;;;;;;4987205;28;20258;-81
2021/09/11 12:32:06;;;;;;;4.40;1.97;;;22.70;99.90;;;;;;5003604;28;20209;-79
2021/09/11 12:34:42;;;;;;;3.20;2.20;;;22.60;99.90;;;;;;4999907;28;20179;-77
2021/09/11 12:37:09;;;;;;;3.43;2.00;;;22.50;99.90;;;;;;4972671;28;20225;-78
2021/09/11 12:39:36;;;;;;;3.80;2.10;;;22.50;99.90;;;;;;4981929;28;20172;-79
2021/09/11 12:42:09;;;;;;;4.20;1.93;;;22.50;99.90;;;;;;4980648;28;20179;-76
2021/09/11 12:44:34;;;;;;;3.50;1.90;;;22.40;99.90;;;;;;4980299;28;20691;-76
2021/09/11 12:47:05;;;;;;;2.00;1.70;;;22.30;99.90;;;;;;5001743;28;20214;-77
2021/09/11 12:49:31;;;;;;;3.53;2.20;;;22.40;99.90;;;;;;4960544;28;20235;-75
2021/09/11 12:51:58;;;;;;;3.10;2.07;;;22.40;99.90;;;;;;4997969;28;20179;-77
2021/09/11 12:54:23;;;;;;;2.73;2.37;;;22.50;99.90;;;;;;5005802;28;20258;-77
2021/09/11 12:56:49;;;;;;;3.50;2.63;;;22.50;99.90;;;;;;4985405;28;20223;-77
2021/09/11 12:59:15;;;;;;;2.60;2.30;;;22.50;99.90;;;;;;4973431;28;20182;-76
2021/09/11 13:01:41;;;;;;;5.33;2.57;;;22.50;99.90;;;;;;4992835;28;20180;-75
2021/09/11 13:04:08;;;;;;;6.47;3.00;;;22.50;99.90;;;;;;5009633;28;20183;-75
2021/09/11 13:06:35;;;;;;;4.47;2.67;;;22.40;99.90;;;;;;4988787;28;20659;-80
2021/09/11 13:09:01;;;;;;;3.03;2.50;;;22.40;99.90;;;;;;5001199;28;20226;-77
2021/09/11 13:11:27;;;;;;;4.57;2.70;;;22.30;99.90;;;;;;4994382;28;20180;-74
2021/09/11 13:13:52;;;;;;;4.90;2.80;;;22.30;99.90;;;;;;5023797;28;20179;-74
2021/09/11 13:16:18;;;;;;;2.93;2.60;;;22.30;99.90;;;;;;5002023;28;20203;-75
2021/09/11 13:18:44;;;;;;;3.90;2.67;;;22.30;99.90;;;;;;4978274;28;20227;-76
2021/09/11 13:21:11;;;;;;;6.50;3.10;;;22.20;99.90;;;;;;4979443;28;20183;-77
2021/09/11 13:23:38;;;;;;;4.27;2.60;;;22.20;99.90;;;;;;5028227;28;20182;-78
2021/09/11 13:26:04;;;;;;;2.87;2.60;;;22.10;99.90;;;;;;5004010;28;20945;-78
2021/09/11 13:28:30;;;;;;;4.93;3.00;;;22.10;99.90;;;;;;4995484;28;20184;-78
2021/09/11 13:30:55;;;;;;;3.70;2.90;;;22.10;99.90;;;;;;4977802;28;20171;-76
2021/09/11 13:33:21;;;;;;;5.30;3.90;;;22.10;99.90;;;;;;5014602;28;20182;-76
2021/09/11 13:35:46;;;;;;;4.87;3.40;;;22.10;99.90;;;;;;5031192;28;20179;-76
2021/09/11 13:38:12;;;;;;;4.40;2.87;;;22.20;99.90;;;;;;5013570;28;20233;-75
2021/09/11 13:40:38;;;;;;;4.37;3.10;;;22.20;99.90;;;;;;5015442;28;20179;-76
2021/09/11 13:43:03;;;;;;;4.00;2.73;;;22.10;99.90;;;;;;4998323;28;20175;-76
2021/09/11 13:45:29;;;;;;;3.47;3.13;;;22.00;99.90;;;;;;5014166;28;20195;-76
2021/09/11 13:47:54;;;;;;;2.87;2.67;;;22.00;99.90;;;;;;5014325;28;20171;-75
2021/09/11 13:50:20;;;;;;;4.20;3.07;;;21.90;99.90;;;;;;4997360;28;20186;-75
2021/09/11 13:52:46;;;;;;;6.00;2.83;;;21.90;99.90;;;;;;4997739;28;20198;-76
2021/09/11 13:55:11;;;;;;;3.23;2.60;;;22.00;99.90;;;;;;5014441;28;20179;-75
2021/09/11 13:57:37;;;;;;;4.30;2.70;;;22.00;99.90;;;;;;4998022;28;20662;-77
2021/09/11 14:00:03;;;;;;;3.07;2.60;;;22.10;99.90;;;;;;5013962;28;20260;-76
2021/09/11 14:02:29;;;;;;;2.90;2.50;;;22.10;99.90;;;;;;4997643;28;20256;-75
2021/09/11 14:04:54;;;;;;;2.53;2.23;;;22.10;99.90;;;;;;4997779;28;20659;-76
2021/09/11 14:07:20;;;;;;;3.23;2.43;;;22.10;99.90;;;;;;5014064;28;20548;-76
2021/09/11 14:09:45;;;;;;;3.33;2.30;;;22.00;99.90;;;;;;5013813;28;20589;-75
2021/09/11 14:12:11;;;;;;;5.10;2.70;;;22.00;99.90;;;;;;5014088;28;20179;-76
2021/09/11 14:14:36;;;;;;;3.67;2.60;;;21.90;99.90;;;;;;5014099;28;20175;-75
2021/09/11 14:17:02;;;;;;;2.60;2.40;;;21.90;99.90;;;;;;5013960;28;20198;-76
2021/09/11 14:19:29;;;;;;;3.70;3.40;;;21.80;99.90;;;;;;4997434;28;20183;-76
2021/09/11 14:21:55;;;;;;;3.70;3.13;;;21.80;99.90;;;;;;4997705;28;20175;-75
2021/09/11 14:24:21;;;;;;;4.20;3.80;;;21.80;99.90;;;;;;5013903;28;20663;-75
2021/09/11 14:26:46;;;;;;;4.70;3.63;;;21.80;99.90;;;;;;5013863;28;20237;-76
2021/09/11 14:29:14;;;;;;;5.37;3.70;;;21.80;99.90;;;;;;5013863;28;20163;-76
2021/09/11 14:31:40;;;;;;;4.17;3.60;;;21.70;99.90;;;;;;5001568;28;20745;-77
2021/09/11 14:34:05;;;;;;;4.40;3.50;;;21.70;99.90;;;;;;5001249;28;20191;-76
2021/09/11 14:36:31;;;;;;;4.00;3.70;;;21.70;99.90;;;;;;5017806;28;20199;-76
2021/09/11 14:38:57;;;;;;;3.83;3.40;;;21.70;99.90;;;;;;5015497;28;20179;-75
2021/09/11 14:41:22;;;;;;;4.43;3.50;;;21.60;99.90;;;;;;5016896;28;20575;-76
2021/09/11 14:43:48;;;;;;;4.37;3.30;;;21.60;99.90;;;;;;5013929;28;20233;-75
2021/09/11 14:46:13;;;;;;;4.80;3.37;;;21.60;99.90;;;;;;5013760;28;20211;-76
2021/09/11 14:48:39;;;;;;;4.90;3.60;;;21.50;99.90;;;;;;4997227;28;20183;-77
2021/09/11 14:51:04;;;;;;;4.00;3.60;;;21.60;99.90;;;;;;5015541;28;20202;-77
2021/09/11 14:53:30;;;;;;;3.87;3.30;;;21.60;99.90;;;;;;5037261;28;20190;-75
2021/09/11 14:55:56;;;;;;;4.17;3.13;;;21.50;99.90;;;;;;5003703;28;20203;-76
2021/09/11 14:58:21;;;;;;;3.90;3.50;;;21.50;99.90;;;;;;5018601;28;20594;-76
2021/09/11 15:00:47;;;;;;;4.33;3.27;;;21.60;99.90;;;;;;5004584;28;20174;-75
2021/09/11 15:03:13;;;;;;;5.33;3.20;;;21.60;99.90;;;;;;5003899;28;20186;-76
2021/09/11 15:05:38;;;;;;;4.33;3.20;;;21.70;99.90;;;;;;5002909;28;20210;-77
2021/09/11 15:08:04;;;;;;;5.40;3.73;;;21.70;99.90;;;;;;5004416;28;20178;-76
2021/09/11 15:10:30;;;;;;;5.17;3.67;;;21.80;99.90;;;;;;5019668;28;20174;-75
2021/09/11 15:12:55;;;;;;;4.70;3.53;;;21.80;99.90;;;;;;5020746;28;20171;-75
2021/09/11 15:15:22;;;;;;;6.03;3.57;;;21.90;99.90;;;;;;5004557;28;20189;-75
2021/09/11 15:17:47;;;;;;;3.53;3.23;;;22.00;99.90;;;;;;5004080;28;20199;-75
2021/09/11 15:20:13;;;;;;;5.37;3.70;;;22.10;99.90;;;;;;5004007;28;20178;-75
2021/09/11 15:22:40;;;;;;;5.97;3.20;;;22.10;99.90;;;;;;5005387;28;20205;-76
2021/09/11 15:25:08;;;;;;;5.47;3.67;;;22.00;99.90;;;;;;5005284;28;20241;-75
2021/09/11 15:27:38;;;;;;;3.90;3.33;;;21.90;99.90;;;;;;5015568;28;20226;-75
2021/09/11 15:30:14;;;;;;;4.00;3.43;;;21.90;99.90;;;;;;4985802;28;20203;-75
2021/09/11 15:32:39;;;;;;;3.57;3.10;;;21.90;99.90;;;;;;4969282;28;20182;-75
2021/09/11 15:35:06;;;;;;;3.70;3.33;;;21.90;99.90;;;;;;4984248;28;20581;-75
2021/09/11 15:37:31;;;;;;;3.77;2.90;;;22.00;99.90;;;;;;4967769;28;20260;-75